sensor_id;sensor_type;location;lat;lon;timestamp;temperature;humidity
43183;DHT22;28802;38.578;-0.066;2023-03-23T00:00:00;14.10;99.90
43183;DHT22;28802;38.578;-0.066;2023-03-23T00:02:30;14.00;99.90
43183;DHT22;28802;38.578;-0.066;2023-03-23T00:05:02;14.00;99.90
43183;DHT22;28802;38.578;-0.066;2023-03-23T00:07:29;14.00;99.90
43183;DHT22;28802;38.578;-0.066;2023-03-23T00:09:56;13.90;99.90
43183;DHT22;28802;38.578;-0.066;2023-03-23T00:12:27;13.90;99.90
43183;DHT22;28802;38.578;-0.066;2023-03-23T00:15:03;13.80;99.90
43183;DHT22;28802;38.578;-0.066;2023-03-23T00:17:31;13.60;99.90
43183;DHT22;28802;38.578;-0.066;2023-03-23T00:19:59;13.60;99.90
43183;DHT22;28802;38.578;-0.066;2023-03-23T00:22:28;13.50;99.90
43183;DHT22;28802;38.578;-0.066;2023-03-23T00:24:54;13.50;99.90
43183;DHT22;28802;38.578;-0.066;2023-03-23T00:27:21;13.30;99.90
43183;DHT22;28802;38.578;-0.066;2023-03-23T00:29:51;13.30;99.90
43183;DHT22;28802;38.578;-0.066;2023-03-23T00:32:21;13.30;99.90
43183;DHT22;28802;38.578;-0.066;2023-03-23T00:34:55;13.30;99.90
43183;DHT22;28802;38.578;-0.066;2023-03-23T00:37:22;13.30;99.90
43183;DHT22;28802;38.578;-0.066;2023-03-23T00:39:48;13.30;99.90
43183;DHT22;28802;38.578;-0.066;2023-03-23T00:42:15;13.40;99.90
43183;DHT22;28802;38.578;-0.066;2023-03-23T00:44:42;13.30;99.90
43183;DHT22;28802;38.578;-0.066;2023-03-23T00:47:10;13.30;99.90
43183;DHT22;28802;38.578;-0.066;2023-03-23T00:49:38;13.20;99.90
43183;DHT22;28802;38.578;-0.066;2023-03-23T00:52:05;13.10;99.90
43183;DHT22;28802;38.578;-0.066;2023-03-23T00:54:32;13.10;99.90
43183;DHT22;28802;38.578;-0.066;2023-03-23T00:56:59;13.10;99.90
43183;DHT22;28802;38.578;-0.066;2023-03-23T00:59:26;13.20;99.90
43183;DHT22;28802;38.578;-0.066;2023-03-23T01:01:51;13.30;99.90
43183;DHT22;28802;38.578;-0.066;2023-03-23T01:04:18;13.40;99.90
43183;DHT22;28802;38.578;-0.066;2023-03-23T01:06:48;13.40;99.90
43183;DHT22;28802;38.578;-0.066;2023-03-23T01:09:17;13.50;99.90
43183;DHT22;28802;38.578;-0.066;2023-03-23T01:11:49;13.50;99.90
43183;DHT22;28802;38.578;-0.066;2023-03-23T01:14:17;13.50;99.90
43183;DHT22;28802;38.578;-0.066;2023-03-23T01:16:44;13.50;99.90
43183;DHT22;28802;38.578;-0.066;2023-03-23T01:19:10;13.60;99.90
43183;DHT22;28802;38.578;-0.066;2023-03-23T01:21:36;13.60;99.90
43183;DHT22;28802;38.578;-0.066;2023-03-23T01:24:02;13.60;99.90
43183;DHT22;28802;38.578;-0.066;2023-03-23T01:26:29;13.60;99.90
43183;DHT22;28802;38.578;-0.066;2023-03-23T01:28:55;13.60;99.90
43183;DHT22;28802;38.578;-0.066;2023-03-23T01:31:25;13.50;99.90
43183;DHT22;28802;38.578;-0.066;2023-03-23T01:33:52;13.70;99.90
43183;DHT22;28802;38.578;-0.066;2023-03-23T01:36:25;13.60;99.90
43183;DHT22;28802;38.578;-0.066;2023-03-23T01:38:57;13.50;99.90
43183;DHT22;28802;38.578;-0.066;2023-03-23T01:41:24;13.60;99.90
43183;DHT22;28802;38.578;-0.066;2023-03-23T01:44:03;13.70;99.90
43183;DHT22;28802;38.578;-0.066;2023-03-23T01:46:39;13.80;99.90
43183;DHT22;28802;38.578;-0.066;2023-03-23T01:49:13;13.80;99.90
43183;DHT22;28802;38.578;-0.066;2023-03-23T01:51:54;13.70;99.90
43183;DHT22;28802;38.578;-0.066;2023-03-23T01:54:23;13.70;99.90
43183;DHT22;28802;38.578;-0.066;2023-03-23T01:57:01;13.60;99.90
43183;DHT22;28802;38.578;-0.066;2023-03-23T01:59:30;13.50;99.90
43183;DHT22;28802;38.578;-0.066;2023-03-23T02:02:13;13.50;99.90
43183;DHT22;28802;38.578;-0.066;2023-03-23T02:04:40;13.60;99.90
43183;DHT22;28802;38.578;-0.066;2023-03-23T02:07:12;13.70;99.90
43183;DHT22;28802;38.578;-0.066;2023-03-23T02:09:39;13.90;99.90
43183;DHT22;28802;38.578;-0.066;2023-03-23T02:12:05;13.80;99.90
43183;DHT22;28802;38.578;-0.066;2023-03-23T02:14:32;13.90;99.90
43183;DHT22;28802;38.578;-0.066;2023-03-23T02:17:28;13.90;99.90
43183;DHT22;28802;38.578;-0.066;2023-03-23T02:22:54;14.20;99.90
43183;DHT22;28802;38.578;-0.066;2023-03-23T02:25:23;14.30;99.90
43183;DHT22;28802;38.578;-0.066;2023-03-23T02:38:44;14.40;99.90
43183;DHT22;28802;38.578;-0.066;2023-03-23T02:41:20;14.60;99.90
43183;DHT22;28802;38.578;-0.066;2023-03-23T02:43:49;14.60;99.90
43183;DHT22;28802;38.578;-0.066;2023-03-23T02:46:16;14.60;99.90
43183;DHT22;28802;38.578;-0.066;2023-03-23T02:48:44;14.40;99.90
43183;DHT22;28802;38.578;-0.066;2023-03-23T02:51:12;14.40;99.90
43183;DHT22;28802;38.578;-0.066;2023-03-23T02:53:42;14.50;99.90
43183;DHT22;28802;38.578;-0.066;2023-03-23T02:56:10;14.50;99.90
43183;DHT22;28802;38.578;-0.066;2023-03-23T02:58:37;14.50;99.90
43183;DHT22;28802;38.578;-0.066;2023-03-23T03:03:52;14.60;99.90
43183;DHT22;28802;38.578;-0.066;2023-03-23T03:06:35;14.60;99.90
43183;DHT22;28802;38.578;-0.066;2023-03-23T03:09:15;14.60;99.90
43183;DHT22;28802;38.578;-0.066;2023-03-23T03:11:49;14.60;99.90
43183;DHT22;28802;38.578;-0.066;2023-03-23T03:14:33;14.70;99.90
43183;DHT22;28802;38.578;-0.066;2023-03-23T03:17:10;14.60;99.90
43183;DHT22;28802;38.578;-0.066;2023-03-23T03:19:42;14.60;99.90
43183;DHT22;28802;38.578;-0.066;2023-03-23T03:22:11;14.60;99.90
43183;DHT22;28802;38.578;-0.066;2023-03-23T03:24:40;14.70;99.90
43183;DHT22;28802;38.578;-0.066;2023-03-23T03:27:15;14.80;99.90
43183;DHT22;28802;38.578;-0.066;2023-03-23T03:29:56;14.90;99.90
43183;DHT22;28802;38.578;-0.066;2023-03-23T03:32:31;14.90;99.90
43183;DHT22;28802;38.578;-0.066;2023-03-23T03:35:01;14.80;99.90
43183;DHT22;28802;38.578;-0.066;2023-03-23T03:37:34;14.70;99.90
43183;DHT22;28802;38.578;-0.066;2023-03-23T03:40:08;14.70;99.90
43183;DHT22;28802;38.578;-0.066;2023-03-23T03:42:39;14.70;99.90
43183;DHT22;28802;38.578;-0.066;2023-03-23T03:45:07;14.80;99.90
43183;DHT22;28802;38.578;-0.066;2023-03-23T03:47:34;14.80;99.90
43183;DHT22;28802;38.578;-0.066;2023-03-23T03:50:00;14.80;99.90
43183;DHT22;28802;38.578;-0.066;2023-03-23T03:52:26;14.70;99.90
43183;DHT22;28802;38.578;-0.066;2023-03-23T03:54:53;14.60;99.90
43183;DHT22;28802;38.578;-0.066;2023-03-23T03:57:20;14.60;99.90
43183;DHT22;28802;38.578;-0.066;2023-03-23T03:59:49;14.60;99.90
43183;DHT22;28802;38.578;-0.066;2023-03-23T04:02:38;14.70;99.90
43183;DHT22;28802;38.578;-0.066;2023-03-23T04:05:06;14.90;99.90
43183;DHT22;28802;38.578;-0.066;2023-03-23T04:07:32;14.90;99.90
43183;DHT22;28802;38.578;-0.066;2023-03-23T04:09:58;15.00;99.90
43183;DHT22;28802;38.578;-0.066;2023-03-23T04:12:24;15.00;99.90
43183;DHT22;28802;38.578;-0.066;2023-03-23T04:14:57;15.00;99.90
43183;DHT22;28802;38.578;-0.066;2023-03-23T04:17:30;15.10;99.90
43183;DHT22;28802;38.578;-0.066;2023-03-23T04:19:56;15.10;99.90
43183;DHT22;28802;38.578;-0.066;2023-03-23T04:22:24;15.10;99.90
43183;DHT22;28802;38.578;-0.066;2023-03-23T04:24:57;15.10;99.90
43183;DHT22;28802;38.578;-0.066;2023-03-23T04:27:26;15.10;99.90
43183;DHT22;28802;38.578;-0.066;2023-03-23T04:29:55;15.10;99.90
43183;DHT22;28802;38.578;-0.066;2023-03-23T04:32:39;15.00;99.90
43183;DHT22;28802;38.578;-0.066;2023-03-23T04:35:10;14.80;99.90
43183;DHT22;28802;38.578;-0.066;2023-03-23T04:37:42;14.70;99.90
43183;DHT22;28802;38.578;-0.066;2023-03-23T04:40:10;14.70;99.90
43183;DHT22;28802;38.578;-0.066;2023-03-23T04:42:43;14.70;99.90
43183;DHT22;28802;38.578;-0.066;2023-03-23T04:45:39;14.60;99.90
43183;DHT22;28802;38.578;-0.066;2023-03-23T04:48:08;14.40;99.90
43183;DHT22;28802;38.578;-0.066;2023-03-23T04:50:43;14.30;99.90
43183;DHT22;28802;38.578;-0.066;2023-03-23T04:53:19;14.10;99.90
43183;DHT22;28802;38.578;-0.066;2023-03-23T04:55:46;13.90;99.90
43183;DHT22;28802;38.578;-0.066;2023-03-23T04:58:15;13.70;99.90
43183;DHT22;28802;38.578;-0.066;2023-03-23T05:00:55;13.70;99.90
43183;DHT22;28802;38.578;-0.066;2023-03-23T05:03:23;13.40;99.90
43183;DHT22;28802;38.578;-0.066;2023-03-23T05:05:53;13.40;99.90
43183;DHT22;28802;38.578;-0.066;2023-03-23T05:08:22;13.40;99.90
43183;DHT22;28802;38.578;-0.066;2023-03-23T05:10:54;13.30;99.90
43183;DHT22;28802;38.578;-0.066;2023-03-23T05:13:23;13.20;99.90
43183;DHT22;28802;38.578;-0.066;2023-03-23T05:15:51;13.10;99.90
43183;DHT22;28802;38.578;-0.066;2023-03-23T05:18:18;13.10;99.90
43183;DHT22;28802;38.578;-0.066;2023-03-23T05:20:46;12.90;99.90
43183;DHT22;28802;38.578;-0.066;2023-03-23T05:23:19;13.00;99.90
43183;DHT22;28802;38.578;-0.066;2023-03-23T05:25:56;13.00;99.90
43183;DHT22;28802;38.578;-0.066;2023-03-23T05:28:24;12.90;99.90
43183;DHT22;28802;38.578;-0.066;2023-03-23T05:30:57;12.90;99.90
43183;DHT22;28802;38.578;-0.066;2023-03-23T05:33:27;12.90;99.90
43183;DHT22;28802;38.578;-0.066;2023-03-23T05:36:10;12.80;99.90
43183;DHT22;28802;38.578;-0.066;2023-03-23T05:39:01;12.90;99.90
43183;DHT22;28802;38.578;-0.066;2023-03-23T05:41:48;12.90;99.90
43183;DHT22;28802;38.578;-0.066;2023-03-23T05:44:14;13.00;99.90
43183;DHT22;28802;38.578;-0.066;2023-03-23T05:46:50;12.90;99.90
43183;DHT22;28802;38.578;-0.066;2023-03-23T05:49:17;12.90;99.90
43183;DHT22;28802;38.578;-0.066;2023-03-23T05:51:44;12.90;99.90
43183;DHT22;28802;38.578;-0.066;2023-03-23T05:54:13;13.10;99.90
43183;DHT22;28802;38.578;-0.066;2023-03-23T05:56:40;13.10;99.90
43183;DHT22;28802;38.578;-0.066;2023-03-23T05:59:09;13.20;99.90
43183;DHT22;28802;38.578;-0.066;2023-03-23T06:01:38;13.20;99.90
43183;DHT22;28802;38.578;-0.066;2023-03-23T06:04:04;13.10;99.90
43183;DHT22;28802;38.578;-0.066;2023-03-23T06:06:45;13.10;99.90
43183;DHT22;28802;38.578;-0.066;2023-03-23T06:09:11;13.10;99.90
43183;DHT22;28802;38.578;-0.066;2023-03-23T06:12:00;13.20;99.90
43183;DHT22;28802;38.578;-0.066;2023-03-23T06:14:41;13.20;99.90
43183;DHT22;28802;38.578;-0.066;2023-03-23T06:17:07;13.20;99.90
43183;DHT22;28802;38.578;-0.066;2023-03-23T06:19:34;13.30;99.90
43183;DHT22;28802;38.578;-0.066;2023-03-23T06:22:13;13.40;99.90
43183;DHT22;28802;38.578;-0.066;2023-03-23T06:25:10;13.40;99.90
43183;DHT22;28802;38.578;-0.066;2023-03-23T06:27:41;13.40;99.90
43183;DHT22;28802;38.578;-0.066;2023-03-23T06:30:09;13.50;99.90
43183;DHT22;28802;38.578;-0.066;2023-03-23T06:32:42;13.80;99.90
43183;DHT22;28802;38.578;-0.066;2023-03-23T06:35:11;14.40;99.90
43183;DHT22;28802;38.578;-0.066;2023-03-23T06:38:02;14.90;99.90
43183;DHT22;28802;38.578;-0.066;2023-03-23T06:40:42;15.50;99.90
43183;DHT22;28802;38.578;-0.066;2023-03-23T06:43:13;16.10;99.90
43183;DHT22;28802;38.578;-0.066;2023-03-23T06:45:39;16.30;99.90
43183;DHT22;28802;38.578;-0.066;2023-03-23T06:48:24;15.80;99.90
43183;DHT22;28802;38.578;-0.066;2023-03-23T06:50:50;15.70;99.90
43183;DHT22;28802;38.578;-0.066;2023-03-23T06:53:18;16.20;99.90
43183;DHT22;28802;38.578;-0.066;2023-03-23T06:55:46;16.20;99.90
43183;DHT22;28802;38.578;-0.066;2023-03-23T06:58:12;16.50;99.90
43183;DHT22;28802;38.578;-0.066;2023-03-23T07:00:39;15.90;99.90
43183;DHT22;28802;38.578;-0.066;2023-03-23T07:03:07;16.60;99.90
43183;DHT22;28802;38.578;-0.066;2023-03-23T07:05:36;17.70;99.90
43183;DHT22;28802;38.578;-0.066;2023-03-23T07:08:03;18.50;99.90
43183;DHT22;28802;38.578;-0.066;2023-03-23T07:10:33;18.60;99.90
43183;DHT22;28802;38.578;-0.066;2023-03-23T07:13:01;19.10;99.90
43183;DHT22;28802;38.578;-0.066;2023-03-23T07:15:31;19.80;99.90
43183;DHT22;28802;38.578;-0.066;2023-03-23T07:18:00;20.50;99.90
43183;DHT22;28802;38.578;-0.066;2023-03-23T07:20:32;21.10;99.90
43183;DHT22;28802;38.578;-0.066;2023-03-23T07:22:58;20.70;99.90
43183;DHT22;28802;38.578;-0.066;2023-03-23T07:25:38;20.70;99.90
43183;DHT22;28802;38.578;-0.066;2023-03-23T07:28:06;21.00;99.90
43183;DHT22;28802;38.578;-0.066;2023-03-23T07:30:32;21.00;99.90
43183;DHT22;28802;38.578;-0.066;2023-03-23T07:32:58;21.10;99.90
43183;DHT22;28802;38.578;-0.066;2023-03-23T07:35:25;20.70;99.90
43183;DHT22;28802;38.578;-0.066;2023-03-23T07:37:57;20.80;99.90
43183;DHT22;28802;38.578;-0.066;2023-03-23T07:40:24;21.00;99.90
43183;DHT22;28802;38.578;-0.066;2023-03-23T07:42:55;20.20;99.90
43183;DHT22;28802;38.578;-0.066;2023-03-23T07:45:33;19.90;99.90
43183;DHT22;28802;38.578;-0.066;2023-03-23T07:47:59;20.30;99.90
43183;DHT22;28802;38.578;-0.066;2023-03-23T07:50:26;19.60;99.90
43183;DHT22;28802;38.578;-0.066;2023-03-23T07:52:55;20.10;99.90
43183;DHT22;28802;38.578;-0.066;2023-03-23T07:55:23;20.20;99.90
43183;DHT22;28802;38.578;-0.066;2023-03-23T07:58:16;20.60;99.90
43183;DHT22;28802;38.578;-0.066;2023-03-23T08:00:46;20.30;99.90
43183;DHT22;28802;38.578;-0.066;2023-03-23T08:03:15;20.60;99.90
43183;DHT22;28802;38.578;-0.066;2023-03-23T08:05:53;20.30;99.90
43183;DHT22;28802;38.578;-0.066;2023-03-23T08:08:37;20.60;99.90
43183;DHT22;28802;38.578;-0.066;2023-03-23T08:11:24;21.00;99.90
43183;DHT22;28802;38.578;-0.066;2023-03-23T08:14:19;21.00;99.90
43183;DHT22;28802;38.578;-0.066;2023-03-23T08:17:03;20.30;99.90
43183;DHT22;28802;38.578;-0.066;2023-03-23T08:19:52;20.10;99.90
43183;DHT22;28802;38.578;-0.066;2023-03-23T08:22:50;19.60;99.90
43183;DHT22;28802;38.578;-0.066;2023-03-23T08:25:38;19.40;99.90
43183;DHT22;28802;38.578;-0.066;2023-03-23T08:28:39;19.50;99.90
43183;DHT22;28802;38.578;-0.066;2023-03-23T08:31:24;20.20;99.90
43183;DHT22;28802;38.578;-0.066;2023-03-23T08:34:03;20.30;99.90
43183;DHT22;28802;38.578;-0.066;2023-03-23T08:36:41;20.70;99.90
43183;DHT22;28802;38.578;-0.066;2023-03-23T08:39:23;20.80;99.90
43183;DHT22;28802;38.578;-0.066;2023-03-23T08:42:09;19.80;99.90
43183;DHT22;28802;38.578;-0.066;2023-03-23T08:44:54;20.00;99.90
43183;DHT22;28802;38.578;-0.066;2023-03-23T08:47:29;20.00;99.90
43183;DHT22;28802;38.578;-0.066;2023-03-23T08:50:18;20.30;99.90
43183;DHT22;28802;38.578;-0.066;2023-03-23T08:53:04;20.60;99.90
43183;DHT22;28802;38.578;-0.066;2023-03-23T08:56:09;20.70;99.90
43183;DHT22;28802;38.578;-0.066;2023-03-23T08:58:44;20.50;99.90
43183;DHT22;28802;38.578;-0.066;2023-03-23T09:01:23;20.30;99.90
43183;DHT22;28802;38.578;-0.066;2023-03-23T09:04:09;19.90;99.90
43183;DHT22;28802;38.578;-0.066;2023-03-23T09:06:55;19.70;99.90
43183;DHT22;28802;38.578;-0.066;2023-03-23T09:09:22;20.00;99.90
43183;DHT22;28802;38.578;-0.066;2023-03-23T09:11:52;20.90;99.90
43183;DHT22;28802;38.578;-0.066;2023-03-23T09:14:18;21.60;99.90
43183;DHT22;28802;38.578;-0.066;2023-03-23T09:16:53;22.10;99.90
43183;DHT22;28802;38.578;-0.066;2023-03-23T09:19:19;21.70;99.90
43183;DHT22;28802;38.578;-0.066;2023-03-23T09:21:45;20.60;99.90
43183;DHT22;28802;38.578;-0.066;2023-03-23T09:24:11;20.60;99.90
43183;DHT22;28802;38.578;-0.066;2023-03-23T09:26:37;20.70;99.90
43183;DHT22;28802;38.578;-0.066;2023-03-23T09:29:04;21.10;99.90
43183;DHT22;28802;38.578;-0.066;2023-03-23T09:31:30;21.00;99.90
43183;DHT22;28802;38.578;-0.066;2023-03-23T09:33:57;21.20;99.90
43183;DHT22;28802;38.578;-0.066;2023-03-23T09:36:24;22.00;99.90
43183;DHT22;28802;38.578;-0.066;2023-03-23T09:38:51;22.70;99.90
43183;DHT22;28802;38.578;-0.066;2023-03-23T09:44:34;22.70;99.90
43183;DHT22;28802;38.578;-0.066;2023-03-23T09:47:18;22.60;99.90
43183;DHT22;28802;38.578;-0.066;2023-03-23T09:49:56;23.20;99.90
43183;DHT22;28802;38.578;-0.066;2023-03-23T09:52:35;23.80;99.90
43183;DHT22;28802;38.578;-0.066;2023-03-23T09:55:02;24.70;99.90
43183;DHT22;28802;38.578;-0.066;2023-03-23T09:57:41;25.80;99.90
43183;DHT22;28802;38.578;-0.066;2023-03-23T10:03:06;25.90;99.90
43183;DHT22;28802;38.578;-0.066;2023-03-23T10:05:41;25.60;99.90
43183;DHT22;28802;38.578;-0.066;2023-03-23T10:08:20;25.20;99.90
43183;DHT22;28802;38.578;-0.066;2023-03-23T10:16:22;25.50;99.90
43183;DHT22;28802;38.578;-0.066;2023-03-23T10:22:08;25.20;99.90
43183;DHT22;28802;38.578;-0.066;2023-03-23T10:24:38;25.50;99.90
43183;DHT22;28802;38.578;-0.066;2023-03-23T10:27:37;25.60;99.90
43183;DHT22;28802;38.578;-0.066;2023-03-23T10:30:42;25.40;99.90
43183;DHT22;28802;38.578;-0.066;2023-03-23T10:35:37;25.40;99.90
43183;DHT22;28802;38.578;-0.066;2023-03-23T10:38:10;25.50;99.90
43183;DHT22;28802;38.578;-0.066;2023-03-23T10:41:29;25.70;99.90
43183;DHT22;28802;38.578;-0.066;2023-03-23T10:43:31;25.20;99.90
43183;DHT22;28802;38.578;-0.066;2023-03-23T10:46:02;25.30;99.90
43183;DHT22;28802;38.578;-0.066;2023-03-23T10:48:35;25.20;99.90
43183;DHT22;28802;38.578;-0.066;2023-03-23T10:51:06;25.30;99.90
43183;DHT22;28802;38.578;-0.066;2023-03-23T10:53:37;25.50;99.90
43183;DHT22;28802;38.578;-0.066;2023-03-23T10:56:05;25.40;99.90
43183;DHT22;28802;38.578;-0.066;2023-03-23T10:58:44;25.40;99.90
43183;DHT22;28802;38.578;-0.066;2023-03-23T11:01:12;25.20;99.90
43183;DHT22;28802;38.578;-0.066;2023-03-23T11:03:42;25.10;99.90
43183;DHT22;28802;38.578;-0.066;2023-03-23T11:06:12;25.90;99.90
43183;DHT22;28802;38.578;-0.066;2023-03-23T11:08:49;25.80;99.90
43183;DHT22;28802;38.578;-0.066;2023-03-23T11:11:20;25.10;99.90
43183;DHT22;28802;38.578;-0.066;2023-03-23T11:13:52;24.70;99.90
43183;DHT22;28802;38.578;-0.066;2023-03-23T11:16:30;25.10;99.90
43183;DHT22;28802;38.578;-0.066;2023-03-23T11:19:11;24.90;99.90
43183;DHT22;28802;38.578;-0.066;2023-03-23T11:21:38;25.20;99.90
43183;DHT22;28802;38.578;-0.066;2023-03-23T11:24:05;25.00;99.90
43183;DHT22;28802;38.578;-0.066;2023-03-23T11:26:33;25.10;99.90
43183;DHT22;28802;38.578;-0.066;2023-03-23T11:34:31;24.90;99.90
43183;DHT22;28802;38.578;-0.066;2023-03-23T11:37:07;25.20;99.90
43183;DHT22;28802;38.578;-0.066;2023-03-23T11:39:54;24.90;99.90
43183;DHT22;28802;38.578;-0.066;2023-03-23T11:42:34;24.50;99.90
43183;DHT22;28802;38.578;-0.066;2023-03-23T11:45:39;24.80;99.90
43183;DHT22;28802;38.578;-0.066;2023-03-23T11:53:40;25.00;99.90
43183;DHT22;28802;38.578;-0.066;2023-03-23T11:58:57;25.20;99.90
43183;DHT22;28802;38.578;-0.066;2023-03-23T12:17:51;25.00;99.90
43183;DHT22;28802;38.578;-0.066;2023-03-23T12:23:24;24.00;99.90
43183;DHT22;28802;38.578;-0.066;2023-03-23T12:28:53;24.40;99.90
43183;DHT22;28802;38.578;-0.066;2023-03-23T12:34:21;24.00;99.90
43183;DHT22;28802;38.578;-0.066;2023-03-23T12:48:37;23.50;99.90
43183;DHT22;28802;38.578;-0.066;2023-03-23T12:51:31;23.40;99.90
43183;DHT22;28802;38.578;-0.066;2023-03-23T12:54:26;23.60;99.90
43183;DHT22;28802;38.578;-0.066;2023-03-23T12:57:35;23.20;99.90
43183;DHT22;28802;38.578;-0.066;2023-03-23T13:02:45;23.00;99.90
43183;DHT22;28802;38.578;-0.066;2023-03-23T13:05:29;22.90;99.90
43183;DHT22;28802;38.578;-0.066;2023-03-23T13:08:11;23.00;99.90
43183;DHT22;28802;38.578;-0.066;2023-03-23T13:10:47;23.10;99.90
43183;DHT22;28802;38.578;-0.066;2023-03-23T13:13:20;22.80;99.90
43183;DHT22;28802;38.578;-0.066;2023-03-23T13:18:27;22.10;99.90
43183;DHT22;28802;38.578;-0.066;2023-03-23T13:21:11;22.10;99.90
43183;DHT22;28802;38.578;-0.066;2023-03-23T13:23:49;22.10;99.90
43183;DHT22;28802;38.578;-0.066;2023-03-23T13:26:21;22.30;99.90
43183;DHT22;28802;38.578;-0.066;2023-03-23T13:28:57;22.40;99.90
43183;DHT22;28802;38.578;-0.066;2023-03-23T13:31:32;22.40;99.90
43183;DHT22;28802;38.578;-0.066;2023-03-23T13:34:28;22.10;99.90
43183;DHT22;28802;38.578;-0.066;2023-03-23T13:37:04;21.90;99.90
43183;DHT22;28802;38.578;-0.066;2023-03-23T13:39:33;21.90;99.90
43183;DHT22;28802;38.578;-0.066;2023-03-23T14:10:40;21.30;99.90
43183;DHT22;28802;38.578;-0.066;2023-03-23T14:13:16;21.30;99.90
43183;DHT22;28802;38.578;-0.066;2023-03-23T14:15:58;21.10;99.90
43183;DHT22;28802;38.578;-0.066;2023-03-23T14:18:30;21.00;99.90
43183;DHT22;28802;38.578;-0.066;2023-03-23T14:20:57;21.10;99.90
43183;DHT22;28802;38.578;-0.066;2023-03-23T14:23:23;21.00;99.90
43183;DHT22;28802;38.578;-0.066;2023-03-23T14:25:59;20.90;99.90
43183;DHT22;28802;38.578;-0.066;2023-03-23T14:28:31;20.90;99.90
43183;DHT22;28802;38.578;-0.066;2023-03-23T14:30:58;20.80;99.90
43183;DHT22;28802;38.578;-0.066;2023-03-23T14:33:26;20.80;99.90
43183;DHT22;28802;38.578;-0.066;2023-03-23T14:35:53;20.90;99.90
43183;DHT22;28802;38.578;-0.066;2023-03-23T14:38:22;21.00;99.90
43183;DHT22;28802;38.578;-0.066;2023-03-23T14:40:50;21.00;99.90
43183;DHT22;28802;38.578;-0.066;2023-03-23T14:43:20;20.80;99.90
43183;DHT22;28802;38.578;-0.066;2023-03-23T14:45:53;20.80;99.90
43183;DHT22;28802;38.578;-0.066;2023-03-23T14:48:21;20.80;99.90
43183;DHT22;28802;38.578;-0.066;2023-03-23T14:50:52;20.70;99.90
43183;DHT22;28802;38.578;-0.066;2023-03-23T14:53:35;20.70;99.90
43183;DHT22;28802;38.578;-0.066;2023-03-23T14:56:20;20.60;99.90
43183;DHT22;28802;38.578;-0.066;2023-03-23T14:58:50;20.60;99.90
43183;DHT22;28802;38.578;-0.066;2023-03-23T15:01:24;20.70;99.90
43183;DHT22;28802;38.578;-0.066;2023-03-23T15:04:08;20.70;99.90
43183;DHT22;28802;38.578;-0.066;2023-03-23T15:06:37;20.60;99.90
43183;DHT22;28802;38.578;-0.066;2023-03-23T15:09:09;20.50;99.90
43183;DHT22;28802;38.578;-0.066;2023-03-23T15:11:38;20.60;99.90
43183;DHT22;28802;38.578;-0.066;2023-03-23T15:14:53;20.50;99.90
43183;DHT22;28802;38.578;-0.066;2023-03-23T15:17:00;20.50;99.90
43183;DHT22;28802;38.578;-0.066;2023-03-23T15:19:35;20.60;99.90
43183;DHT22;28802;38.578;-0.066;2023-03-23T15:22:22;20.60;99.90
43183;DHT22;28802;38.578;-0.066;2023-03-23T15:24:51;20.60;99.90
43183;DHT22;28802;38.578;-0.066;2023-03-23T15:27:32;20.60;99.90
43183;DHT22;28802;38.578;-0.066;2023-03-23T15:32:52;20.60;99.90
43183;DHT22;28802;38.578;-0.066;2023-03-23T15:35:21;20.50;99.90
43183;DHT22;28802;38.578;-0.066;2023-03-23T15:38:00;20.50;99.90
43183;DHT22;28802;38.578;-0.066;2023-03-23T15:40:27;20.50;99.90
43183;DHT22;28802;38.578;-0.066;2023-03-23T15:48:50;20.30;99.90
43183;DHT22;28802;38.578;-0.066;2023-03-23T15:51:19;20.30;99.90
43183;DHT22;28802;38.578;-0.066;2023-03-23T15:53:46;20.40;99.90
43183;DHT22;28802;38.578;-0.066;2023-03-23T15:56:13;20.50;99.90
43183;DHT22;28802;38.578;-0.066;2023-03-23T15:58:39;20.40;99.90
43183;DHT22;28802;38.578;-0.066;2023-03-23T16:01:17;20.30;99.90
43183;DHT22;28802;38.578;-0.066;2023-03-23T16:06:20;20.40;99.90
43183;DHT22;28802;38.578;-0.066;2023-03-23T16:08:47;20.40;99.90
43183;DHT22;28802;38.578;-0.066;2023-03-23T16:11:15;20.30;99.90
43183;DHT22;28802;38.578;-0.066;2023-03-23T16:13:42;20.20;99.90
43183;DHT22;28802;38.578;-0.066;2023-03-23T16:16:21;20.20;99.90
43183;DHT22;28802;38.578;-0.066;2023-03-23T16:18:48;20.20;99.90
43183;DHT22;28802;38.578;-0.066;2023-03-23T16:21:21;20.20;99.90
43183;DHT22;28802;38.578;-0.066;2023-03-23T16:23:54;20.10;99.90
43183;DHT22;28802;38.578;-0.066;2023-03-23T16:26:29;20.10;99.90
43183;DHT22;28802;38.578;-0.066;2023-03-23T16:28:55;20.10;99.90
43183;DHT22;28802;38.578;-0.066;2023-03-23T16:31:22;20.10;99.90
43183;DHT22;28802;38.578;-0.066;2023-03-23T16:33:48;20.00;99.90
43183;DHT22;28802;38.578;-0.066;2023-03-23T16:36:14;20.00;99.90
43183;DHT22;28802;38.578;-0.066;2023-03-23T16:38:45;19.90;99.90
43183;DHT22;28802;38.578;-0.066;2023-03-23T16:41:11;19.90;99.90
43183;DHT22;28802;38.578;-0.066;2023-03-23T16:43:37;19.80;99.90
43183;DHT22;28802;38.578;-0.066;2023-03-23T16:46:03;19.80;99.90
43183;DHT22;28802;38.578;-0.066;2023-03-23T16:48:30;19.80;99.90
43183;DHT22;28802;38.578;-0.066;2023-03-23T16:50:59;19.90;99.90
43183;DHT22;28802;38.578;-0.066;2023-03-23T16:53:28;19.90;99.90
43183;DHT22;28802;38.578;-0.066;2023-03-23T16:55:55;19.80;99.90
43183;DHT22;28802;38.578;-0.066;2023-03-23T16:58:22;19.70;99.90
43183;DHT22;28802;38.578;-0.066;2023-03-23T17:00:50;19.70;99.90
43183;DHT22;28802;38.578;-0.066;2023-03-23T17:03:20;19.50;99.90
43183;DHT22;28802;38.578;-0.066;2023-03-23T17:05:48;19.50;99.90
43183;DHT22;28802;38.578;-0.066;2023-03-23T17:08:18;19.50;99.90
43183;DHT22;28802;38.578;-0.066;2023-03-23T17:10:46;19.50;99.90
43183;DHT22;28802;38.578;-0.066;2023-03-23T17:13:13;19.50;99.90
43183;DHT22;28802;38.578;-0.066;2023-03-23T17:15:40;19.50;99.90
43183;DHT22;28802;38.578;-0.066;2023-03-23T17:18:17;19.40;99.90
43183;DHT22;28802;38.578;-0.066;2023-03-23T17:20:43;19.50;99.90
43183;DHT22;28802;38.578;-0.066;2023-03-23T17:23:09;19.60;99.90
43183;DHT22;28802;38.578;-0.066;2023-03-23T17:25:35;19.50;99.90
43183;DHT22;28802;38.578;-0.066;2023-03-23T17:28:02;19.50;99.90
43183;DHT22;28802;38.578;-0.066;2023-03-23T17:30:28;19.50;99.90
43183;DHT22;28802;38.578;-0.066;2023-03-23T17:32:54;19.50;99.90
43183;DHT22;28802;38.578;-0.066;2023-03-23T17:35:20;19.50;99.90
43183;DHT22;28802;38.578;-0.066;2023-03-23T17:37:46;19.50;99.90
43183;DHT22;28802;38.578;-0.066;2023-03-23T17:40:16;19.40;99.90
43183;DHT22;28802;38.578;-0.066;2023-03-23T17:42:42;19.40;99.90
43183;DHT22;28802;38.578;-0.066;2023-03-23T17:45:09;19.30;99.90
43183;DHT22;28802;38.578;-0.066;2023-03-23T17:47:35;19.40;99.90
43183;DHT22;28802;38.578;-0.066;2023-03-23T17:50:02;19.50;99.90
43183;DHT22;28802;38.578;-0.066;2023-03-23T17:52:31;19.50;99.90
43183;DHT22;28802;38.578;-0.066;2023-03-23T17:54:57;19.30;99.90
43183;DHT22;28802;38.578;-0.066;2023-03-23T17:57:23;19.20;99.90